Time;durP1;ratioP1;P1;durP2;ratioP2;P2;SDS_P1;SDS_P2;PMS_P1;PMS_P2;Temp;Humidity;BMP_temperature;BMP_pressure;BME280_temperature;BME280_humidity;BME280_pressure;Samples;Min_cycle;Max_cycle;Signal;HPM_P1;HPM_P2
2023/09/13 00:02:24;;;;;;;14.60;10.63;;;21.10;97.10;;;;;;4974676;28;20031;-79
2023/09/13 00:04:49;;;;;;;13.13;9.10;;;21.00;97.10;;;;;;4974608;28;20029;-79
2023/09/13 00:07:15;;;;;;;13.85;9.50;;;21.00;97.20;;;;;;4974701;28;20026;-79
2023/09/13 00:09:41;;;;;;;14.90;9.80;;;21.00;97.20;;;;;;4974671;28;20401;-80
2023/09/13 00:12:08;;;;;;;13.57;10.27;;;21.00;97.30;;;;;;4974491;28;20046;-80
2023/09/13 00:14:33;;;;;;;13.95;10.18;;;21.00;97.40;;;;;;4974407;28;20035;-80
2023/09/13 00:16:59;;;;;;;12.35;9.88;;;20.90;97.40;;;;;;4974361;28;20037;-80
2023/09/13 00:19:27;;;;;;;13.23;9.88;;;20.90;97.50;;;;;;4974373;28;20374;-79
2023/09/13 00:21:52;;;;;;;14.65;9.68;;;20.90;97.60;;;;;;4988941;28;20396;-79
2023/09/13 00:24:18;;;;;;;13.10;10.13;;;20.90;97.60;;;;;;4974099;28;20133;-80
2023/09/13 00:26:43;;;;;;;11.57;8.85;;;20.90;97.70;;;;;;4974727;28;20436;-80
2023/09/13 00:29:09;;;;;;;11.95;9.57;;;20.90;97.70;;;;;;4974442;28;20027;-80
2023/09/13 00:31:34;;;;;;;14.98;9.93;;;20.90;97.70;;;;;;4974911;28;20126;-81
2023/09/13 00:34:00;;;;;;;12.80;9.48;;;20.80;97.70;;;;;;4974403;28;20027;-80
2023/09/13 00:36:25;;;;;;;12.40;9.88;;;20.80;97.70;;;;;;4974036;28;20022;-81
2023/09/13 00:38:51;;;;;;;12.57;8.90;;;20.80;97.80;;;;;;4956978;28;20038;-81
2023/09/13 00:41:16;;;;;;;11.65;9.40;;;20.80;97.90;;;;;;4974665;28;20027;-81
2023/09/13 00:43:42;;;;;;;13.43;9.43;;;20.80;97.90;;;;;;4974024;28;20026;-80
2023/09/13 00:46:08;;;;;;;13.15;9.77;;;20.80;98.00;;;;;;4989126;28;20130;-80
2023/09/13 00:48:35;;;;;;;14.27;10.02;;;20.80;98.00;;;;;;4956930;28;20023;-80
2023/09/13 00:51:02;;;;;;;13.70;10.10;;;20.70;98.10;;;;;;4956684;28;20037;-80
2023/09/13 00:53:30;;;;;;;13.15;10.15;;;20.80;98.10;;;;;;4973437;28;20098;-81
2023/09/13 00:55:55;;;;;;;13.30;10.40;;;20.70;98.20;;;;;;4973914;28;20026;-80
2023/09/13 00:58:21;;;;;;;12.68;9.93;;;20.80;98.20;;;;;;4974059;28;20457;-80
2023/09/13 01:00:53;;;;;;;13.50;10.75;;;20.70;98.30;;;;;;4973475;28;20536;-80
2023/09/13 01:03:19;;;;;;;14.88;11.00;;;20.70;98.40;;;;;;4973865;28;20054;-80
2023/09/13 01:05:46;;;;;;;15.48;11.32;;;20.70;98.40;;;;;;4973404;28;20109;-80
2023/09/13 01:08:11;;;;;;;17.80;12.30;;;20.60;98.50;;;;;;4973551;28;20065;-79
2023/09/13 01:10:37;;;;;;;14.27;11.13;;;20.70;98.70;;;;;;4973279;28;20058;-81
2023/09/13 01:13:03;;;;;;;16.67;11.75;;;20.60;98.60;;;;;;4973377;28;20395;-80
2023/09/13 01:15:35;;;;;;;14.63;11.30;;;20.60;98.70;;;;;;4973232;28;20031;-82
2023/09/13 01:18:21;;;;;;;16.38;11.98;;;20.50;98.80;;;;;;4956252;28;20019;-80
2023/09/13 01:21:12;;;;;;;14.75;10.98;;;20.60;99.00;;;;;;4973029;28;20058;-81
2023/09/13 01:24:19;;;;;;;17.08;11.57;;;20.60;99.00;;;;;;4972869;28;20042;-80
2023/09/13 01:27:11;;;;;;;15.35;10.98;;;20.60;99.10;;;;;;4913379;29;20492;-80
2023/09/13 01:29:38;;;;;;;16.95;11.38;;;20.50;99.10;;;;;;4913155;29;20044;-80
2023/09/13 01:32:04;;;;;;;14.13;11.75;;;20.50;99.20;;;;;;4936808;28;20382;-80
2023/09/13 01:34:29;;;;;;;15.82;11.90;;;20.60;99.30;;;;;;4972747;28;20034;-81
2023/09/13 01:36:56;;;;;;;15.82;12.05;;;20.50;99.40;;;;;;4955530;28;20038;-80
2023/09/13 01:39:22;;;;;;;15.73;11.85;;;20.60;99.50;;;;;;4972860;28;20496;-81
2023/09/13 01:42:02;;;;;;;16.20;12.23;;;20.60;99.60;;;;;;4973223;28;20066;-81
2023/09/13 01:44:28;;;;;;;15.25;12.18;;;20.60;99.70;;;;;;4972963;28;20035;-82
2023/09/13 01:46:55;;;;;;;16.33;12.20;;;20.70;99.80;;;;;;4973074;28;20026;-81
2023/09/13 01:49:21;;;;;;;16.02;12.57;;;20.70;99.80;;;;;;4972631;28;20085;-81
2023/09/13 01:51:48;;;;;;;18.45;13.13;;;20.70;99.80;;;;;;4955587;28;20045;-81
2023/09/13 01:54:17;;;;;;;20.30;12.05;;;20.70;99.90;;;;;;4973423;28;20054;-81
2023/09/13 01:56:42;;;;;;;16.95;12.68;;;20.70;99.90;;;;;;4977041;28;20055;-81
2023/09/13 01:59:08;;;;;;;16.80;12.52;;;20.70;99.90;;;;;;4976821;28;20058;-81
2023/09/13 02:01:33;;;;;;;16.38;13.10;;;20.60;99.90;;;;;;4976527;28;20073;-82
2023/09/13 02:03:59;;;;;;;17.42;13.18;;;20.70;99.90;;;;;;4976613;28;20381;-81
2023/09/13 02:06:25;;;;;;;15.55;12.70;;;20.70;99.90;;;;;;4976390;28;20050;-81
2023/09/13 02:08:51;;;;;;;19.20;13.63;;;20.70;99.90;;;;;;4976611;28;20034;-82
2023/09/13 02:11:16;;;;;;;14.15;10.93;;;20.60;99.90;;;;;;4976018;28;20033;-78
2023/09/13 02:13:42;;;;;;;11.07;7.97;;;20.60;99.90;;;;;;4976534;28;20056;-79
2023/09/13 02:16:07;;;;;;;11.70;7.90;;;20.50;99.90;;;;;;4976129;28;20385;-79
2023/09/13 02:18:33;;;;;;;11.88;8.63;;;20.40;99.90;;;;;;4976303;28;20393;-80
2023/09/13 02:20:59;;;;;;;12.35;9.30;;;20.30;99.90;;;;;;4976101;28;20894;-80
2023/09/13 02:23:24;;;;;;;14.25;10.30;;;20.30;99.90;;;;;;4975961;28;20054;-80
2023/09/13 02:25:50;;;;;;;16.20;11.93;;;20.20;99.90;;;;;;4975960;28;20042;-81
2023/09/13 02:28:17;;;;;;;18.75;13.05;;;20.20;99.90;;;;;;4975836;28;20030;-81
2023/09/13 02:30:45;;;;;;;15.90;12.93;;;20.20;99.90;;;;;;4975652;28;20033;-82
2023/09/13 02:33:11;;;;;;;18.00;13.50;;;20.20;99.90;;;;;;4958481;28;20031;-80
2023/09/13 02:35:37;;;;;;;18.73;13.95;;;20.20;99.90;;;;;;4958549;28;20174;-80
2023/09/13 02:38:02;;;;;;;19.88;14.68;;;20.10;99.90;;;;;;4975867;28;20393;-81
2023/09/13 02:40:28;;;;;;;18.85;12.90;;;20.10;99.90;;;;;;4975733;28;20122;-81
2023/09/13 02:42:54;;;;;;;20.75;14.13;;;20.20;99.90;;;;;;4975512;28;20114;-81
2023/09/13 02:45:19;;;;;;;18.45;13.65;;;20.20;99.90;;;;;;4975760;28;20050;-80
2023/09/13 02:47:45;;;;;;;20.48;15.15;;;20.10;99.90;;;;;;4958512;28;20058;-81
2023/09/13 02:50:11;;;;;;;19.98;14.68;;;20.00;99.90;;;;;;4975788;28;20113;-82
2023/09/13 02:52:37;;;;;;;17.20;14.57;;;20.10;99.90;;;;;;4975606;28;20042;-81
2023/09/13 02:55:07;;;;;;;19.98;13.65;;;20.10;99.90;;;;;;4975502;28;20086;-81
2023/09/13 02:57:33;;;;;;;20.63;15.70;;;20.10;99.90;;;;;;4975662;28;20400;-82
2023/09/13 02:59:58;;;;;;;26.88;18.48;;;20.10;99.90;;;;;;4975167;28;20031;-80
2023/09/13 03:02:24;;;;;;;26.15;18.15;;;20.10;99.90;;;;;;4973877;28;20070;-81
2023/09/13 03:04:51;;;;;;;24.30;18.40;;;20.10;99.90;;;;;;4958007;28;20022;-80
2023/09/13 03:07:17;;;;;;;26.90;18.70;;;20.10;99.90;;;;;;4957799;28;20031;-81
2023/09/13 03:09:50;;;;;;;29.50;20.38;;;20.20;99.90;;;;;;4975078;28;20061;-81
2023/09/13 03:12:16;;;;;;;31.17;20.65;;;20.10;99.90;;;;;;4975191;28;20054;-81
2023/09/13 03:14:41;;;;;;;29.40;21.58;;;20.10;99.90;;;;;;4975538;28;20035;-81
2023/09/13 03:17:07;;;;;;;33.95;23.40;;;20.10;99.90;;;;;;4975249;28;20034;-81
2023/09/13 03:19:33;;;;;;;37.15;25.27;;;20.10;99.90;;;;;;4975279;28;20027;-81
2023/09/13 03:21:58;;;;;;;31.30;23.88;;;20.10;99.90;;;;;;4975724;28;20031;-80
2023/09/13 03:24:24;;;;;;;35.72;27.35;;;20.00;99.90;;;;;;4974543;28;20420;-82
2023/09/13 03:26:50;;;;;;;34.50;26.08;;;20.00;99.90;;;;;;4972490;28;20030;-80
2023/09/13 03:29:15;;;;;;;35.22;27.10;;;20.00;99.90;;;;;;4971959;28;20404;-79
2023/09/13 03:31:41;;;;;;;37.53;25.63;;;19.90;99.90;;;;;;4971642;28;20035;-79
2023/09/13 03:34:07;;;;;;;35.60;26.27;;;20.00;99.90;;;;;;4973508;28;20033;-80
2023/09/13 03:36:33;;;;;;;35.03;26.50;;;19.90;99.90;;;;;;4972257;28;20401;-80
2023/09/13 03:38:58;;;;;;;34.10;25.38;;;19.80;99.90;;;;;;4973340;28;20033;-81
2023/09/13 03:41:26;;;;;;;37.20;26.00;;;19.90;99.90;;;;;;4973478;28;20052;-80
2023/09/13 03:43:52;;;;;;;35.10;26.38;;;19.80;99.90;;;;;;4973016;28;20481;-82
2023/09/13 03:46:18;;;;;;;31.88;25.00;;;19.90;99.90;;;;;;4972526;28;20105;-80
2023/09/13 03:48:43;;;;;;;37.28;27.33;;;19.70;99.90;;;;;;4956040;28;20576;-80
2023/09/13 03:51:09;;;;;;;38.42;26.83;;;19.90;99.90;;;;;;4955736;28;20480;-80
2023/09/13 03:53:35;;;;;;;33.42;24.90;;;19.90;99.90;;;;;;4973176;28;20038;-79
2023/09/13 03:56:02;;;;;;;38.80;26.52;;;20.00;99.90;;;;;;4955844;28;20042;-80
2023/09/13 03:58:28;;;;;;;35.00;26.73;;;20.00;99.90;;;;;;4973130;28;20113;-80
2023/09/13 04:00:54;;;;;;;37.10;26.73;;;19.90;99.90;;;;;;4972914;28;20038;-79
2023/09/13 04:03:21;;;;;;;33.20;26.45;;;20.00;99.90;;;;;;4973462;28;20019;-80
2023/09/13 04:05:47;;;;;;;33.97;25.20;;;20.10;99.90;;;;;;4973164;28;20022;-79
2023/09/13 04:08:13;;;;;;;33.63;24.67;;;20.10;99.90;;;;;;4955525;28;20109;-80
2023/09/13 04:10:39;;;;;;;35.15;26.67;;;20.10;99.90;;;;;;4973136;28;20121;-78
2023/09/13 04:13:05;;;;;;;34.50;25.77;;;20.10;99.90;;;;;;4973134;28;20509;-80
2023/09/13 04:15:30;;;;;;;39.42;28.17;;;20.20;99.90;;;;;;4955662;28;20023;-79
2023/09/13 04:17:56;;;;;;;38.60;27.52;;;20.10;99.90;;;;;;4972649;28;20081;-80
2023/09/13 04:20:22;;;;;;;36.75;26.92;;;20.00;99.90;;;;;;4973060;28;20027;-80
2023/09/13 04:22:47;;;;;;;39.20;27.77;;;20.10;99.90;;;;;;4936497;28;1055402;-81
2023/09/13 04:25:13;;;;;;;42.42;27.35;;;20.10;99.90;;;;;;4972255;28;20053;-80
2023/09/13 04:27:42;;;;;;;40.05;28.58;;;20.00;99.90;;;;;;4973833;28;20029;-85
2023/09/13 04:30:08;;;;;;;46.75;33.03;;;20.00;99.90;;;;;;4974794;28;20031;-81
2023/09/13 04:32:34;;;;;;;41.83;30.75;;;20.00;99.90;;;;;;4979155;28;20077;-81
2023/09/13 04:35:00;;;;;;;45.47;31.63;;;20.00;99.90;;;;;;4992798;28;20022;-80
2023/09/13 04:37:25;;;;;;;52.58;35.45;;;19.90;99.90;;;;;;4975089;28;20022;-83
2023/09/13 04:39:51;;;;;;;51.75;35.33;;;19.90;99.90;;;;;;4992480;28;20050;-81
2023/09/13 04:42:17;;;;;;;54.70;38.60;;;19.80;99.90;;;;;;4992346;28;20034;-81
2023/09/13 04:44:42;;;;;;;53.83;37.30;;;19.90;99.90;;;;;;4992269;28;20023;-83
2023/09/13 04:47:08;;;;;;;51.85;35.78;;;19.80;99.90;;;;;;4974422;28;20023;-80
2023/09/13 04:49:36;;;;;;;50.42;35.75;;;19.80;99.90;;;;;;4975463;28;20030;-81
2023/09/13 04:52:02;;;;;;;61.05;40.15;;;19.70;99.90;;;;;;4974830;28;20460;-82
2023/09/13 04:54:28;;;;;;;55.75;38.83;;;19.70;99.90;;;;;;4974786;28;20361;-81
2023/09/13 04:56:54;;;;;;;59.08;39.53;;;19.60;99.90;;;;;;4993339;28;20073;-83
2023/09/13 04:59:25;;;;;;;57.47;39.47;;;19.50;99.90;;;;;;4993394;28;20061;-84
2023/09/13 05:01:50;;;;;;;61.20;41.22;;;19.50;99.90;;;;;;4992911;28;20080;-84
2023/09/13 05:04:16;;;;;;;51.45;35.88;;;19.60;99.90;;;;;;4993635;28;20101;-84
2023/09/13 05:06:41;;;;;;;56.17;37.58;;;19.40;99.90;;;;;;4992918;28;20030;-83
2023/09/13 05:09:07;;;;;;;52.05;35.67;;;19.50;99.90;;;;;;4993009;28;20041;-84
2023/09/13 05:11:32;;;;;;;57.85;37.13;;;19.40;99.90;;;;;;4991313;28;20038;-81
2023/09/13 05:14:12;;;;;;;54.72;35.22;;;19.40;99.90;;;;;;4992903;28;20030;-81
2023/09/13 05:16:37;;;;;;;53.78;37.85;;;19.40;99.90;;;;;;4992585;28;20376;-83
2023/09/13 05:19:03;;;;;;;50.13;33.53;;;19.40;99.90;;;;;;4975015;28;20023;-82
2023/09/13 05:21:28;;;;;;;55.67;35.55;;;19.30;99.90;;;;;;4991428;28;20030;-81
2023/09/13 05:23:54;;;;;;;48.97;34.63;;;19.40;99.90;;;;;;4992721;28;20046;-81
2023/09/13 05:26:20;;;;;;;54.78;36.30;;;19.20;99.90;;;;;;4992957;28;20030;-80
2023/09/13 05:28:45;;;;;;;52.95;34.58;;;19.40;99.90;;;;;;4992475;28;20027;-82
2023/09/13 05:31:11;;;;;;;53.13;33.83;;;19.30;99.90;;;;;;4996223;28;20042;-80
2023/09/13 05:33:37;;;;;;;47.65;31.60;;;19.30;99.90;;;;;;4996222;28;20091;-81
2023/09/13 05:36:10;;;;;;;53.80;33.67;;;19.40;99.90;;;;;;4996416;28;20026;-81
2023/09/13 05:38:36;;;;;;;52.08;35.65;;;19.40;99.90;;;;;;4978737;28;20027;-85
2023/09/13 05:41:08;;;;;;;50.25;34.22;;;19.40;99.90;;;;;;4996386;28;20027;-81
2023/09/13 05:43:41;;;;;;;48.50;33.13;;;19.30;99.90;;;;;;4996506;28;20073;-82
2023/09/13 05:46:07;;;;;;;50.55;32.25;;;19.40;99.90;;;;;;4996680;28;20046;-81
2023/09/13 05:48:34;;;;;;;47.60;32.58;;;19.30;99.90;;;;;;4978687;28;20467;-82
2023/09/13 05:51:00;;;;;;;47.35;32.17;;;19.40;99.90;;;;;;4995984;28;20031;-83
2023/09/13 05:53:25;;;;;;;45.85;31.33;;;19.40;99.90;;;;;;4996274;28;20333;-83
2023/09/13 05:55:51;;;;;;;56.42;36.58;;;19.40;99.90;;;;;;4978514;28;20472;-84
2023/09/13 05:58:17;;;;;;;48.47;31.63;;;19.40;99.90;;;;;;4978509;28;20246;-83
2023/09/13 06:00:47;;;;;;;55.58;37.03;;;19.40;99.90;;;;;;4996254;28;20038;-83
2023/09/13 06:03:13;;;;;;;56.65;37.83;;;19.40;99.90;;;;;;4996029;28;20388;-81
2023/09/13 06:05:39;;;;;;;58.42;38.10;;;19.50;99.90;;;;;;4978326;28;20023;-84
2023/09/13 06:08:05;;;;;;;60.88;38.10;;;19.40;99.90;;;;;;4995883;28;20030;-83
2023/09/13 06:10:31;;;;;;;59.40;37.65;;;19.40;99.90;;;;;;4995924;28;20064;-81
2023/09/13 06:12:56;;;;;;;55.42;35.65;;;19.40;99.90;;;;;;4995447;28;20077;-84
2023/09/13 06:15:22;;;;;;;48.58;32.97;;;19.40;99.90;;;;;;4977720;28;20523;-84
2023/09/13 06:17:48;;;;;;;49.15;33.72;;;19.40;99.90;;;;;;4977761;28;20038;-80
2023/09/13 06:20:13;;;;;;;49.95;33.67;;;19.40;99.90;;;;;;4995298;28;20061;-83
2023/09/13 06:22:39;;;;;;;53.63;35.97;;;19.40;99.90;;;;;;4995233;28;20030;-80
2023/09/13 06:25:05;;;;;;;46.13;31.33;;;19.40;99.90;;;;;;4990131;28;20065;-84
2023/09/13 06:27:30;;;;;;;51.67;34.78;;;19.50;99.90;;;;;;4979812;28;20053;-83
2023/09/13 06:29:56;;;;;;;46.58;32.45;;;19.50;99.90;;;;;;4978741;28;20049;-81
2023/09/13 06:32:22;;;;;;;46.80;31.85;;;19.50;99.90;;;;;;4978950;28;20488;-81
2023/09/13 06:34:48;;;;;;;45.83;29.98;;;19.50;99.90;;;;;;4980902;28;20022;-81
2023/09/13 06:37:14;;;;;;;51.03;35.25;;;19.60;99.90;;;;;;4985693;28;20089;-80
2023/09/13 06:39:39;;;;;;;50.38;32.88;;;19.50;99.90;;;;;;4994644;28;20022;-80
2023/09/13 06:42:06;;;;;;;38.45;26.25;;;19.50;99.90;;;;;;5009216;28;20026;-80
2023/09/13 06:44:33;;;;;;;53.72;32.72;;;19.60;99.90;;;;;;5007982;28;20050;-79
2023/09/13 06:46:58;;;;;;;49.80;32.65;;;19.50;99.90;;;;;;5007990;28;20031;-81
2023/09/13 06:49:24;;;;;;;46.72;31.60;;;19.50;99.90;;;;;;5008918;28;20069;-81
2023/09/13 06:51:50;;;;;;;46.25;32.38;;;19.60;99.90;;;;;;5008668;28;20034;-81
2023/09/13 06:54:16;;;;;;;49.22;31.70;;;19.60;99.90;;;;;;4997946;28;20041;-80
2023/09/13 06:56:43;;;;;;;44.00;29.40;;;19.60;99.90;;;;;;4995091;28;20030;-83
2023/09/13 06:59:08;;;;;;;42.78;28.83;;;19.70;99.90;;;;;;4977517;28;20031;-85
2023/09/13 07:01:34;;;;;;;27.40;18.33;;;19.60;99.90;;;;;;4977633;28;20031;-84
2023/09/13 07:04:00;;;;;;;16.65;11.20;;;19.70;99.90;;;;;;4977081;28;20392;-83
2023/09/13 07:06:25;;;;;;;14.18;7.45;;;19.60;99.90;;;;;;4994605;28;20026;-81
2023/09/13 07:08:51;;;;;;;6.75;2.70;;;19.60;99.90;;;;;;4994141;28;20033;-82
2023/09/13 07:11:17;;;;;;;3.03;0.90;;;19.50;99.90;;;;;;4993997;28;20037;-79
2023/09/13 07:13:42;;;;;;;1.92;0.50;;;19.40;99.90;;;;;;4994110;28;20097;-79
2023/09/13 07:16:08;;;;;;;2.05;0.30;;;19.20;99.50;;;;;;4976689;28;20424;-80
2023/09/13 07:18:34;;;;;;;2.78;0.43;;;19.10;99.60;;;;;;4976984;28;20496;-81
2023/09/13 07:21:00;;;;;;;1.92;0.40;;;19.10;99.20;;;;;;4994324;28;20026;-80
2023/09/13 07:23:26;;;;;;;2.17;0.50;;;19.00;98.40;;;;;;4976660;28;20423;-81
2023/09/13 07:25:52;;;;;;;1.73;0.40;;;18.90;98.00;;;;;;4993243;28;20511;-83
2023/09/13 07:28:18;;;;;;;1.63;0.50;;;18.90;98.10;;;;;;4994095;28;20023;-81
2023/09/13 07:30:44;;;;;;;1.42;0.32;;;18.80;98.10;;;;;;4995034;28;20489;-81
2023/09/13 07:33:09;;;;;;;2.08;0.32;;;18.70;97.90;;;;;;4993149;28;20134;-84
2023/09/13 07:35:35;;;;;;;1.65;0.30;;;18.70;97.50;;;;;;4994432;28;20062;-81
2023/09/13 07:38:00;;;;;;;0.85;0.22;;;18.70;97.20;;;;;;4994688;28;20405;-82
2023/09/13 07:40:26;;;;;;;2.97;0.40;;;18.60;97.20;;;;;;4994494;28;20027;-80
2023/09/13 07:42:51;;;;;;;2.00;0.40;;;18.80;97.50;;;;;;4994559;28;20037;-80
2023/09/13 07:45:17;;;;;;;2.55;0.40;;;18.80;97.40;;;;;;4994514;28;20045;-81
2023/09/13 07:47:43;;;;;;;2.75;0.40;;;18.80;97.40;;;;;;4995166;28;20025;-81
2023/09/13 07:50:28;;;;;;;2.05;0.40;;;19.00;97.00;;;;;;4976550;28;20022;-80
2023/09/13 07:52:54;;;;;;;1.27;0.30;;;18.90;96.90;;;;;;4991950;28;20038;-80
2023/09/13 07:55:20;;;;;;;2.72;0.80;;;18.90;96.30;;;;;;4994048;28;20381;-81
2023/09/13 07:57:45;;;;;;;1.67;0.52;;;18.90;96.10;;;;;;4994084;28;20125;-84
2023/09/13 08:00:11;;;;;;;2.60;0.30;;;18.90;96.10;;;;;;4993937;28;20041;-81
2023/09/13 08:02:37;;;;;;;2.45;0.30;;;18.90;96.00;;;;;;4976313;28;20045;-82
2023/09/13 08:05:03;;;;;;;3.10;0.43;;;19.00;95.70;;;;;;4993679;28;20062;-82
2023/09/13 08:07:29;;;;;;;1.58;0.47;;;18.90;95.50;;;;;;4993969;28;20026;-81
2023/09/13 08:09:55;;;;;;;0.82;0.30;;;18.90;95.30;;;;;;4993688;28;20140;-81
2023/09/13 08:12:20;;;;;;;1.77;0.32;;;18.90;95.00;;;;;;4992792;28;20038;-81
2023/09/13 08:14:46;;;;;;;1.85;0.40;;;18.80;95.10;;;;;;4976197;28;20038;-82
2023/09/13 08:17:11;;;;;;;1.95;0.40;;;18.90;95.00;;;;;;4991953;28;20076;-81
2023/09/13 08:19:37;;;;;;;1.75;0.30;;;18.90;95.00;;;;;;4993220;28;20034;-83
2023/09/13 08:22:04;;;;;;;3.20;0.68;;;19.00;94.70;;;;;;4993030;28;20181;-79
2023/09/13 08:24:32;;;;;;;2.25;0.52;;;19.00;94.20;;;;;;4993310;28;20045;-81
2023/09/13 08:26:58;;;;;;;1.73;0.40;;;18.90;94.20;;;;;;4990916;28;20076;-81
2023/09/13 08:29:23;;;;;;;1.35;0.40;;;19.00;94.40;;;;;;4976196;28;20030;-81
2023/09/13 08:31:49;;;;;;;1.50;0.40;;;19.10;94.30;;;;;;4975435;28;20392;-82
2023/09/13 08:34:15;;;;;;;1.90;0.40;;;19.00;94.00;;;;;;4992681;28;20048;-82
2023/09/13 08:36:40;;;;;;;3.25;0.45;;;19.00;93.80;;;;;;4992690;28;20185;-80
2023/09/13 08:39:06;;;;;;;1.40;0.45;;;19.00;93.90;;;;;;4992986;28;20031;-79
2023/09/13 08:41:33;;;;;;;2.50;0.50;;;19.10;93.80;;;;;;4992782;28;20542;-79
2023/09/13 08:44:01;;;;;;;2.08;0.40;;;19.30;93.40;;;;;;4992709;28;20047;-81
2023/09/13 08:46:27;;;;;;;1.85;0.50;;;19.10;93.50;;;;;;4993164;28;20026;-83
2023/09/13 08:48:55;;;;;;;1.67;0.73;;;19.20;93.30;;;;;;4991991;28;20034;-81
2023/09/13 08:51:21;;;;;;;2.70;0.77;;;19.20;92.90;;;;;;4992791;28;20480;-80
2023/09/13 08:53:48;;;;;;;3.03;0.80;;;19.30;92.90;;;;;;4975920;28;20103;-80
2023/09/13 08:56:14;;;;;;;2.75;0.60;;;19.30;92.80;;;;;;4992172;28;20057;-79
2023/09/13 08:58:40;;;;;;;2.83;0.47;;;19.30;92.40;;;;;;4992959;28;20066;-80
2023/09/13 09:01:09;;;;;;;4.70;0.60;;;19.40;92.20;;;;;;4992248;28;20440;-81
2023/09/13 09:03:35;;;;;;;3.38;0.70;;;19.40;91.80;;;;;;4992507;28;20473;-78
2023/09/13 09:06:01;;;;;;;3.83;0.45;;;19.50;91.60;;;;;;4992616;28;20054;-79
2023/09/13 09:08:28;;;;;;;2.03;0.57;;;19.40;91.70;;;;;;4992580;28;20096;-79
2023/09/13 09:10:57;;;;;;;2.78;0.77;;;19.50;92.10;;;;;;4992267;28;20480;-79
2023/09/13 09:13:25;;;;;;;1.58;0.38;;;19.70;92.00;;;;;;4992399;28;20038;-79
2023/09/13 09:15:55;;;;;;;1.50;0.32;;;19.80;92.00;;;;;;4992055;28;20026;-79
2023/09/13 09:18:22;;;;;;;2.65;0.50;;;19.90;91.60;;;;;;4992671;28;20030;-79
2023/09/13 09:20:48;;;;;;;2.75;0.50;;;19.90;91.50;;;;;;4992169;28;20100;-83
2023/09/13 09:23:14;;;;;;;1.42;0.45;;;20.00;91.30;;;;;;4974432;28;20081;-83
2023/09/13 09:25:43;;;;;;;1.40;0.40;;;20.00;91.10;;;;;;4992480;28;20030;-83
2023/09/13 09:28:09;;;;;;;3.15;0.50;;;20.00;90.70;;;;;;4974984;28;20085;-83
2023/09/13 09:30:34;;;;;;;2.35;0.50;;;20.00;90.60;;;;;;4991900;28;20026;-83
2023/09/13 09:33:01;;;;;;;1.60;0.50;;;20.00;90.40;;;;;;4974346;28;20046;-84
2023/09/13 09:35:27;;;;;;;1.55;0.50;;;20.10;90.10;;;;;;4990445;28;20472;-82
2023/09/13 09:37:52;;;;;;;0.73;0.30;;;20.10;90.10;;;;;;4991887;28;20033;-83
2023/09/13 09:40:18;;;;;;;4.80;0.63;;;20.10;90.10;;;;;;4974476;28;20031;-83
2023/09/13 09:42:43;;;;;;;2.47;0.45;;;20.20;90.10;;;;;;4991891;28;20026;-84
2023/09/13 09:45:09;;;;;;;2.20;0.40;;;20.20;90.00;;;;;;4991323;28;20468;-83
2023/09/13 09:47:38;;;;;;;3.35;0.60;;;20.30;89.40;;;;;;4992050;28;20510;-83
2023/09/13 09:50:04;;;;;;;2.35;0.65;;;20.30;89.40;;;;;;4974552;28;20057;-83
2023/09/13 09:52:30;;;;;;;4.22;0.50;;;20.40;88.80;;;;;;4991572;28;20129;-83
2023/09/13 09:54:56;;;;;;;4.65;0.50;;;20.50;88.00;;;;;;4992131;28;20057;-83
2023/09/13 09:57:23;;;;;;;2.55;0.57;;;20.60;87.10;;;;;;4993295;28;20026;-80
2023/09/13 09:59:49;;;;;;;1.83;0.45;;;20.80;86.40;;;;;;4975582;28;20031;-79
2023/09/13 10:02:15;;;;;;;1.23;0.40;;;21.00;86.10;;;;;;4993423;28;20062;-79
2023/09/13 10:04:45;;;;;;;2.28;0.50;;;21.20;85.80;;;;;;4992525;28;20115;-79
2023/09/13 10:07:10;;;;;;;2.08;0.52;;;21.50;85.10;;;;;;4992798;28;20564;-80
2023/09/13 10:09:38;;;;;;;2.45;0.50;;;21.90;84.60;;;;;;4993226;28;20030;-79
2023/09/13 10:12:04;;;;;;;1.63;0.50;;;22.30;84.40;;;;;;4992699;28;20129;-79
2023/09/13 10:14:30;;;;;;;1.98;0.47;;;22.60;83.10;;;;;;4991319;28;20030;-80
2023/09/13 10:16:56;;;;;;;3.45;0.70;;;22.80;82.00;;;;;;4995502;28;20517;-80
2023/09/13 10:19:25;;;;;;;1.98;0.57;;;22.80;79.90;;;;;;4994192;28;20026;-81
2023/09/13 10:21:53;;;;;;;2.28;0.50;;;22.80;78.60;;;;;;4976614;28;20027;-80
2023/09/13 10:24:21;;;;;;;1.65;0.60;;;22.80;77.00;;;;;;4994599;28;20054;-83
2023/09/13 10:26:51;;;;;;;1.90;0.45;;;22.90;77.10;;;;;;4993907;28;20118;-86
2023/09/13 10:29:35;;;;;;;1.92;0.50;;;23.40;77.50;;;;;;4994135;28;20022;-82
2023/09/13 10:32:06;;;;;;;4.05;0.77;;;24.30;77.20;;;;;;4991278;28;20085;-86
2023/09/13 10:34:35;;;;;;;3.33;0.70;;;25.10;75.00;;;;;;4994926;28;20473;-83
2023/09/13 10:37:12;;;;;;;3.35;0.80;;;25.40;72.80;;;;;;4995338;28;20031;-85
2023/09/13 10:39:47;;;;;;;4.35;1.10;;;25.40;70.80;;;;;;4995117;28;20124;-83
2023/09/13 10:42:12;;;;;;;2.50;0.80;;;25.60;69.90;;;;;;4994037;28;20037;-84
2023/09/13 10:44:38;;;;;;;2.58;0.70;;;25.70;68.20;;;;;;4995575;28;20027;-87
2023/09/13 10:47:05;;;;;;;3.75;1.17;;;25.70;65.00;;;;;;4995190;28;20026;-86
2023/09/13 10:49:31;;;;;;;2.08;0.70;;;25.50;64.40;;;;;;4992845;28;20039;-84
2023/09/13 10:51:58;;;;;;;4.28;0.80;;;25.40;64.70;;;;;;4981677;28;20038;-85
2023/09/13 10:54:25;;;;;;;2.70;0.68;;;25.70;65.30;;;;;;4994385;28;20026;-85
2023/09/13 10:56:51;;;;;;;4.60;0.90;;;26.00;64.80;;;;;;4995035;28;20030;-86
2023/09/13 10:59:21;;;;;;;2.97;0.70;;;25.80;62.50;;;;;;4994188;28;20022;-83
2023/09/13 11:01:47;;;;;;;2.92;0.75;;;25.50;61.70;;;;;;4995950;28;20034;-86
2023/09/13 11:04:14;;;;;;;3.38;0.68;;;25.20;62.40;;;;;;4995924;28;20075;-83
2023/09/13 11:06:42;;;;;;;3.60;0.90;;;25.00;62.80;;;;;;4996065;28;20033;-86
2023/09/13 11:09:15;;;;;;;4.28;1.17;;;24.80;62.80;;;;;;4995592;28;20018;-87
2023/09/13 11:11:51;;;;;;;3.13;0.90;;;24.70;63.30;;;;;;4978850;28;20031;-85
2023/09/13 11:14:27;;;;;;;2.33;0.70;;;24.70;63.60;;;;;;4995931;28;20056;-83
2023/09/13 11:16:53;;;;;;;3.25;1.00;;;24.80;63.80;;;;;;4995937;28;20018;-84
2023/09/13 11:19:25;;;;;;;3.78;0.80;;;25.20;63.90;;;;;;4995700;28;20392;-85
2023/09/13 11:21:57;;;;;;;1.98;0.70;;;25.50;63.50;;;;;;4995790;28;20061;-85
2023/09/13 11:24:40;;;;;;;3.72;0.93;;;25.40;62.20;;;;;;4980937;28;20047;-83
2023/09/13 11:27:16;;;;;;;4.60;1.10;;;25.40;61.60;;;;;;4974856;28;20636;-85
2023/09/13 11:29:50;;;;;;;2.83;0.73;;;25.10;61.60;;;;;;4975583;28;20448;-86
2023/09/13 11:32:25;;;;;;;2.75;0.70;;;24.90;61.80;;;;;;4975926;28;20125;-86
2023/09/13 11:34:59;;;;;;;3.17;0.70;;;25.00;62.00;;;;;;4958124;28;20027;-85
2023/09/13 11:37:26;;;;;;;4.07;1.00;;;24.90;62.00;;;;;;4958724;28;20407;-87
2023/09/13 11:40:24;;;;;;;3.88;0.90;;;25.00;61.50;;;;;;4975830;28;20027;-86
2023/09/13 11:42:51;;;;;;;2.50;0.55;;;24.90;61.20;;;;;;4984044;28;20076;-87
2023/09/13 11:45:29;;;;;;;3.38;0.60;;;24.80;61.00;;;;;;4993327;28;20068;-86
2023/09/13 11:47:55;;;;;;;2.58;0.70;;;24.60;60.90;;;;;;5007506;28;20050;-85
2023/09/13 11:50:22;;;;;;;1.95;0.65;;;24.50;61.50;;;;;;4976623;28;20050;-84
2023/09/13 11:53:16;;;;;;;2.95;0.70;;;24.50;62.00;;;;;;4977301;28;20061;-85
2023/09/13 11:55:55;;;;;;;2.00;0.47;;;24.60;61.80;;;;;;4995258;28;20022;-85
2023/09/13 11:58:31;;;;;;;3.85;0.70;;;24.60;62.00;;;;;;4994715;28;20335;-85
2023/09/13 12:00:59;;;;;;;3.40;0.60;;;24.70;62.20;;;;;;4977916;28;20053;-85
2023/09/13 12:03:27;;;;;;;3.63;0.60;;;24.80;62.10;;;;;;4995261;28;20045;-86
2023/09/13 12:05:53;;;;;;;2.45;0.68;;;24.80;62.00;;;;;;4977046;28;20034;-85
2023/09/13 12:08:31;;;;;;;5.13;0.80;;;25.00;62.40;;;;;;4977126;28;20094;-83
2023/09/13 12:11:00;;;;;;;2.88;0.70;;;25.10;62.30;;;;;;4977609;28;20117;-84
2023/09/13 12:13:43;;;;;;;2.45;0.73;;;25.30;62.20;;;;;;4976656;28;20485;-83
2023/09/13 12:16:10;;;;;;;2.25;0.70;;;25.40;62.30;;;;;;4976560;28;20053;-84
2023/09/13 12:18:37;;;;;;;1.88;0.40;;;25.60;62.70;;;;;;4994541;28;20084;-82
2023/09/13 12:21:03;;;;;;;2.55;0.60;;;25.90;62.60;;;;;;4991982;28;20025;-83
2023/09/13 12:23:36;;;;;;;1.55;0.45;;;26.30;62.60;;;;;;4976569;28;20038;-83
2023/09/13 12:26:05;;;;;;;2.05;0.50;;;26.70;62.10;;;;;;4976995;28;20417;-83
2023/09/13 12:28:33;;;;;;;1.95;0.40;;;26.90;61.50;;;;;;4994914;28;20041;-83
2023/09/13 12:31:03;;;;;;;2.15;0.60;;;27.00;60.90;;;;;;4976938;28;20030;-85
2023/09/13 12:33:29;;;;;;;2.05;0.55;;;26.90;61.00;;;;;;4994583;28;20125;-85
2023/09/13 12:35:55;;;;;;;2.45;0.60;;;26.70;60.30;;;;;;4992816;28;20062;-83
2023/09/13 12:38:22;;;;;;;3.60;0.88;;;26.50;60.40;;;;;;4994071;28;20034;-84